createdAt,value
2022-09-26T00:01:56.363Z,87.50
2022-09-26T00:04:33.497Z,87.50
2022-09-26T00:07:09.838Z,87.50
2022-09-26T00:09:46.061Z,87.46
2022-09-26T00:12:22.590Z,87.41
2022-09-26T00:14:59.036Z,87.52
2022-09-26T00:17:35.691Z,87.56
2022-09-26T00:20:13.872Z,87.55
2022-09-26T00:22:50.300Z,87.60
2022-09-26T00:25:27.165Z,87.60
2022-09-26T00:28:03.851Z,87.56
2022-09-26T00:30:44.710Z,87.54
2022-09-26T00:33:21.478Z,87.61
2022-09-26T00:35:59.202Z,87.67
2022-09-26T00:38:36.168Z,87.60
2022-09-26T00:41:13.645Z,87.72
2022-09-26T00:43:54.987Z,87.78
2022-09-26T00:46:38.472Z,87.75
2022-09-26T00:49:36.002Z,87.82
2022-09-26T00:52:21.721Z,87.82
2022-09-26T00:55:04.051Z,87.84
2022-09-26T00:57:48.546Z,87.89
2022-09-26T01:00:27.396Z,87.96
2022-09-26T01:03:04.579Z,87.98
2022-09-26T01:05:41.358Z,87.90
2022-09-26T01:08:23.205Z,87.84
2022-09-26T01:10:58.702Z,87.80
2022-09-26T01:13:39.178Z,87.80
2022-09-26T01:16:15.419Z,87.75
2022-09-26T01:18:52.441Z,87.81
2022-09-26T01:22:13.522Z,87.94
2022-09-26T01:25:13.879Z,88.04
2022-09-26T01:28:20.112Z,88.20
2022-09-26T01:31:08.373Z,88.35
2022-09-26T01:34:11.157Z,88.52
2022-09-26T01:37:10.861Z,88.67
2022-09-26T01:40:04.417Z,88.82
2022-09-26T01:42:55.058Z,89.00
2022-09-26T01:45:44.440Z,89.10
2022-09-26T01:48:35.055Z,89.20
2022-09-26T01:51:21.416Z,89.20
2022-09-26T01:54:07.478Z,89.18
2022-09-26T01:56:48.060Z,89.11
2022-09-26T01:59:30.641Z,89.09
2022-09-26T02:02:20.484Z,89.06
2022-09-26T02:05:04.120Z,88.96
2022-09-26T02:07:48.399Z,88.88
2022-09-26T02:10:31.768Z,88.80
2022-09-26T02:13:19.213Z,88.77
2022-09-26T02:16:03.133Z,88.63
2022-09-26T02:18:46.517Z,88.58
2022-09-26T02:21:26.268Z,88.59
2022-09-26T02:24:03.199Z,88.44
2022-09-26T02:26:42.292Z,88.44
2022-09-26T02:29:20.751Z,88.49
2022-09-26T02:32:06.298Z,88.42
2022-09-26T02:34:44.258Z,88.40
2022-09-26T02:37:23.396Z,88.39
2022-09-26T02:40:01.258Z,88.40
2022-09-26T02:42:51.889Z,88.40
2022-09-26T02:45:41.861Z,88.39
2022-09-26T02:48:47.009Z,88.39
2022-09-26T02:51:54.598Z,88.45
2022-09-26T02:54:46.527Z,88.69
2022-09-26T02:57:41.769Z,88.81
2022-09-26T03:00:24.881Z,88.90
2022-09-26T03:03:14.751Z,88.92
2022-09-26T03:05:56.155Z,89.00
2022-09-26T03:08:38.891Z,89.03
2022-09-26T03:11:21.780Z,89.04
2022-09-26T03:14:00.593Z,89.09
2022-09-26T03:16:45.772Z,89.10
2022-09-26T03:19:33.356Z,89.10
2022-09-26T03:22:10.217Z,89.17
2022-09-26T03:24:49.402Z,89.20
2022-09-26T03:27:26.927Z,89.29
2022-09-26T03:30:04.486Z,89.24
2022-09-26T03:32:43.411Z,89.20
2022-09-26T03:35:20.946Z,89.22
2022-09-26T03:37:57.782Z,89.20
2022-09-26T03:40:46.818Z,89.22
2022-09-26T03:43:44.087Z,89.20
2022-09-26T03:46:20.785Z,89.19
2022-09-26T03:48:57.218Z,89.25
2022-09-26T03:51:34.301Z,89.38
2022-09-26T03:54:12.459Z,89.47
2022-09-26T03:56:48.679Z,89.62
2022-09-26T03:59:26.330Z,89.70
2022-09-26T04:02:02.850Z,89.72
2022-09-26T04:04:40.633Z,89.66
2022-09-26T04:07:18.096Z,89.57
2022-09-26T04:09:54.299Z,89.53
2022-09-26T04:12:30.488Z,89.50
2022-09-26T04:15:07.694Z,89.50
2022-09-26T04:17:44.210Z,89.48
2022-09-26T04:20:20.800Z,89.37
2022-09-26T04:22:57.416Z,89.31
2022-09-26T04:25:37.644Z,89.29
2022-09-26T04:28:13.883Z,89.18
2022-09-26T04:30:50.710Z,89.17
2022-09-26T04:33:28.740Z,89.19
2022-09-26T04:36:18.213Z,89.19
2022-09-26T04:38:55.362Z,89.17
2022-09-26T04:41:32.810Z,89.21
2022-09-26T04:44:12.833Z,89.28
2022-09-26T04:46:49.575Z,89.30
2022-09-26T04:49:26.165Z,89.39
2022-09-26T04:52:02.919Z,89.43
2022-09-26T04:54:39.216Z,89.49
2022-09-26T04:57:19.574Z,89.53
2022-09-26T04:59:56.356Z,89.60
2022-09-26T05:02:32.665Z,89.62
2022-09-26T05:05:10.489Z,89.63
2022-09-26T05:07:47.496Z,89.71
2022-09-26T05:10:23.815Z,89.71
2022-09-26T05:13:07.696Z,89.71
2022-09-26T05:15:45.702Z,89.70
2022-09-26T05:18:23.416Z,89.63
2022-09-26T05:21:01.404Z,89.62
2022-09-26T05:23:56.603Z,89.69
2022-09-26T05:26:45.103Z,89.69
2022-09-26T05:29:21.938Z,89.70
2022-09-26T05:32:01.518Z,89.58
2022-09-26T05:34:40.552Z,89.53
2022-09-26T05:37:17.113Z,89.50
2022-09-26T05:40:11.310Z,89.52
2022-09-26T05:42:50.654Z,89.57
2022-09-26T05:45:27.457Z,89.57
2022-09-26T05:48:03.972Z,89.49
2022-09-26T05:50:43.444Z,89.50
2022-09-26T05:53:20.334Z,89.47
2022-09-26T05:55:57.459Z,89.45
2022-09-26T05:58:44.969Z,89.30
2022-09-26T06:01:26.752Z,89.18
2022-09-26T06:04:05.823Z,89.10
2022-09-26T06:06:50.937Z,89.00
2022-09-26T06:09:27.188Z,89.01
2022-09-26T06:12:21.483Z,89.10
2022-09-26T06:14:58.169Z,88.95
2022-09-26T06:17:34.363Z,88.84
2022-09-26T06:20:13.354Z,88.77
2022-09-26T06:22:49.803Z,88.81
2022-09-26T06:25:26.854Z,88.88
2022-09-26T06:28:03.912Z,88.74
2022-09-26T06:30:40.325Z,88.70
2022-09-26T06:33:22.090Z,88.67
2022-09-26T06:36:41.435Z,88.45
2022-09-26T06:39:18.039Z,88.27
2022-09-26T06:41:57.138Z,88.15
2022-09-26T06:45:23.642Z,88.08
2022-09-26T06:48:52.955Z,87.80
2022-09-26T06:52:30.081Z,87.47
2022-09-26T06:55:09.535Z,87.37
2022-09-26T06:57:46.965Z,87.47
2022-09-26T07:00:23.438Z,87.16
2022-09-26T07:03:16.118Z,87.01
2022-09-26T07:06:00.756Z,86.92
2022-09-26T07:09:00.990Z,86.70
2022-09-26T07:12:13.717Z,86.64
2022-09-26T07:14:51.364Z,86.46
2022-09-26T07:17:37.857Z,86.09
2022-09-26T07:20:20.077Z,85.88
2022-09-26T07:23:16.545Z,85.64
2022-09-26T07:25:53.280Z,85.53
2022-09-26T07:28:30.496Z,85.41
2022-09-26T07:31:07.751Z,85.23
2022-09-26T07:33:52.946Z,85.16
2022-09-26T07:36:29.140Z,85.10
2022-09-26T07:39:05.505Z,85.01
2022-09-26T07:41:41.923Z,84.98
2022-09-26T07:45:09.296Z,84.61
2022-09-26T07:47:32.945Z,84.51
2022-09-26T07:50:15.706Z,84.64
2022-09-26T07:53:01.354Z,84.61
2022-09-26T07:55:57.731Z,84.59
2022-09-26T07:58:54.551Z,84.40
2022-09-26T08:01:47.402Z,84.17
2022-09-26T08:04:47.872Z,83.68
2022-09-26T08:07:24.691Z,83.53
2022-09-26T08:10:09.285Z,83.17
2022-09-26T08:13:38.916Z,83.26
2022-09-26T08:16:28.763Z,82.78
2022-09-26T08:19:08.799Z,82.72
2022-09-26T08:21:45.480Z,82.56
2022-09-26T08:24:22.671Z,82.54
2022-09-26T08:27:18.096Z,82.70
2022-09-26T08:29:56.873Z,82.65
2022-09-26T08:32:33.521Z,82.25
2022-09-26T08:35:12.289Z,81.96
2022-09-26T08:38:04.613Z,82.11
2022-09-26T08:41:41.561Z,82.02
2022-09-26T08:46:01.866Z,82.13
2022-09-26T08:50:02.817Z,82.05
2022-09-26T08:52:51.983Z,82.01
2022-09-26T08:55:35.228Z,82.04
2022-09-26T08:58:20.029Z,82.25
2022-09-26T09:01:05.586Z,82.32
2022-09-26T09:04:08.145Z,82.56
2022-09-26T09:06:45.297Z,82.59
2022-09-26T09:09:22.381Z,82.81
2022-09-26T09:12:31.971Z,82.70
2022-09-26T09:15:54.066Z,82.98
2022-09-26T09:18:57.167Z,83.46
2022-09-26T09:22:26.950Z,83.74
2022-09-26T09:25:23.387Z,83.89
2022-09-26T09:28:32.584Z,83.96
2022-09-26T09:31:12.951Z,83.91
2022-09-26T09:34:17.303Z,83.53
2022-09-26T09:37:22.228Z,83.64
2022-09-26T09:40:02.013Z,83.66
2022-09-26T09:42:52.097Z,83.71
2022-09-26T09:45:40.020Z,83.64
2022-09-26T09:48:18.867Z,83.81
2022-09-26T09:51:17.135Z,84.16
2022-09-26T09:54:31.829Z,84.28
2022-09-26T09:57:40.061Z,84.45
2022-09-26T10:00:22.297Z,84.87
2022-09-26T10:03:19.368Z,85.01
2022-09-26T10:06:01.834Z,84.81
2022-09-26T10:08:44.833Z,84.53
2022-09-26T10:11:31.575Z,84.51
2022-09-26T10:15:04.802Z,84.60
2022-09-26T10:18:28.788Z,84.48
2022-09-26T10:21:19.074Z,84.58
2022-09-26T10:23:55.954Z,84.54
2022-09-26T10:26:54.164Z,84.29
2022-09-26T10:29:45.333Z,84.43
2022-09-26T10:32:22.574Z,84.28
2022-09-26T10:35:24.460Z,84.26
2022-09-26T10:38:19.238Z,84.06
2022-09-26T10:41:00.518Z,83.92
2022-09-26T10:43:39.713Z,83.60
2022-09-26T10:46:32.591Z,83.33
2022-09-26T10:50:03.114Z,82.87
2022-09-26T10:53:34.406Z,82.63
2022-09-26T10:56:23.601Z,82.49
2022-09-26T10:59:10.296Z,82.22
2022-09-26T11:01:56.676Z,82.03
2022-09-26T11:05:03.976Z,81.79
2022-09-26T11:08:06.849Z,81.72
2022-09-26T11:11:24.132Z,81.56
2022-09-26T11:14:09.088Z,81.61
2022-09-26T11:17:00.492Z,81.65
2022-09-26T11:19:54.627Z,81.31
2022-09-26T11:22:41.736Z,81.79
2022-09-26T11:25:25.520Z,81.72
2022-09-26T11:28:11.912Z,81.60
2022-09-26T11:31:14.404Z,81.36
2022-09-26T11:33:52.782Z,81.11
2022-09-26T11:37:14.197Z,80.59
2022-09-26T11:40:17.686Z,80.61
2022-09-26T11:43:17.825Z,80.64
2022-09-26T11:46:23.928Z,80.34
2022-09-26T11:49:45.281Z,79.74
2022-09-26T11:53:09.840Z,78.82
2022-09-26T11:56:12.847Z,78.26
2022-09-26T11:58:59.315Z,77.81
2022-09-26T12:01:48.900Z,77.83
2022-09-26T12:04:57.653Z,77.98
2022-09-26T12:07:49.640Z,77.47
2022-09-26T12:10:42.280Z,76.51
2022-09-26T12:13:38.148Z,76.12
2022-09-26T12:16:26.152Z,74.98
2022-09-26T12:19:20.942Z,75.48
2022-09-26T12:22:27.153Z,75.67
2022-09-26T12:25:31.173Z,75.44
2022-09-26T12:28:52.643Z,74.62
2022-09-26T12:31:51.482Z,72.91
2022-09-26T12:35:05.241Z,72.77
2022-09-26T12:38:21.684Z,72.04
2022-09-26T12:41:23.263Z,72.56
2022-09-26T12:44:46.702Z,71.13
2022-09-26T12:48:06.251Z,70.92
2022-09-26T12:51:01.179Z,70.76
2022-09-26T12:54:03.303Z,70.34
2022-09-26T12:56:54.799Z,70.67
2022-09-26T13:00:11.706Z,70.79
2022-09-26T13:03:50.938Z,70.79
2022-09-26T13:07:19.791Z,70.36
2022-09-26T13:10:28.052Z,70.73
2022-09-26T13:14:17.796Z,71.14
2022-09-26T13:17:10.616Z,70.62
2022-09-26T13:19:54.984Z,71.36
2022-09-26T13:22:42.525Z,71.27
2022-09-26T13:25:29.974Z,70.83
2022-09-26T13:28:17.749Z,69.95
2022-09-26T13:31:02.475Z,69.79
2022-09-26T13:33:46.598Z,69.78
2022-09-26T13:36:25.429Z,70.02
2022-09-26T13:39:10.634Z,69.81
2022-09-26T13:42:01.971Z,68.93
2022-09-26T13:45:04.125Z,68.07
2022-09-26T13:47:51.105Z,67.85
2022-09-26T13:50:37.641Z,68.32
2022-09-26T13:53:29.694Z,68.52
2022-09-26T13:56:49.684Z,68.52
2022-09-26T13:59:54.401Z,69.05
2022-09-26T14:02:32.956Z,69.27
2022-09-26T14:05:52.185Z,68.98
2022-09-26T14:08:55.326Z,69.01
2022-09-26T14:11:50.219Z,68.82
2022-09-26T14:14:49.440Z,68.78
2022-09-26T14:18:24.443Z,68.99
2022-09-26T14:21:38.553Z,69.32
2022-09-26T14:24:42.509Z,69.43
2022-09-26T14:27:49.507Z,69.22
2022-09-26T14:30:36.316Z,68.90
2022-09-26T14:33:17.813Z,69.10
2022-09-26T14:36:14.213Z,69.42
2022-09-26T14:38:55.279Z,69.53
2022-09-26T14:41:37.075Z,69.40
2022-09-26T14:44:24.538Z,69.35
2022-09-26T14:47:05.770Z,69.42
2022-09-26T14:49:42.526Z,69.63
2022-09-26T14:52:25.367Z,70.17
2022-09-26T14:55:07.102Z,70.50
2022-09-26T14:57:41.979Z,71.04
2022-09-26T15:00:44.608Z,71.51
2022-09-26T15:03:22.860Z,71.94
2022-09-26T15:06:03.563Z,72.46
2022-09-26T15:08:41.718Z,73.48
2022-09-26T15:11:42.486Z,73.78
2022-09-26T15:14:33.242Z,74.18
2022-09-26T15:17:17.891Z,74.50
2022-09-26T15:20:00.527Z,74.70
2022-09-26T15:22:39.704Z,74.97
2022-09-26T15:25:34.697Z,75.20
2022-09-26T15:28:12.741Z,75.47
2022-09-26T15:30:50.882Z,75.66
2022-09-26T15:33:27.638Z,75.80
2022-09-26T15:36:08.574Z,76.01
2022-09-26T15:38:47.354Z,76.29
2022-09-26T15:41:42.386Z,76.67
2022-09-26T15:44:34.871Z,76.89
2022-09-26T15:47:43.869Z,77.03
2022-09-26T15:50:26.320Z,77.50
2022-09-26T15:53:19.300Z,77.64
2022-09-26T15:56:02.609Z,77.71
2022-09-26T15:58:47.626Z,77.85
2022-09-26T16:01:27.639Z,78.18
2022-09-26T16:04:15.328Z,78.40
2022-09-26T16:10:31.211Z,79.24
2022-09-26T16:13:22.357Z,79.40
2022-09-26T16:16:10.023Z,79.56
2022-09-26T16:18:59.683Z,79.90
2022-09-26T16:21:39.299Z,80.28
2022-09-26T16:24:36.773Z,80.54
2022-09-26T16:27:26.859Z,80.86
2022-09-26T16:30:05.431Z,81.02
2022-09-26T16:32:42.493Z,81.02
2022-09-26T16:35:29.563Z,81.30
2022-09-26T16:38:28.269Z,81.45
2022-09-26T16:41:09.773Z,81.71
2022-09-26T16:43:55.225Z,81.80
2022-09-26T16:46:38.955Z,82.05
2022-09-26T16:49:49.262Z,82.28
2022-09-26T16:52:35.978Z,82.42
2022-09-26T16:55:15.169Z,82.45
2022-09-26T16:57:58.675Z,82.47
2022-09-26T17:00:55.701Z,82.78
2022-09-26T17:03:36.623Z,83.05
2022-09-26T17:06:13.571Z,83.28
2022-09-26T17:08:50.254Z,83.58
2022-09-26T17:11:33.569Z,83.70
2022-09-26T17:14:13.828Z,83.75
2022-09-26T17:16:55.547Z,83.87
2022-09-26T17:19:39.425Z,83.98
2022-09-26T17:22:19.684Z,84.20
2022-09-26T17:24:57.241Z,84.31
2022-09-26T17:27:38.594Z,84.36
2022-09-26T17:30:22.817Z,84.52
2022-09-26T17:32:59.987Z,84.80
2022-09-26T17:35:37.973Z,84.90
2022-09-26T17:38:19.577Z,84.97
2022-09-26T17:40:56.206Z,85.17
2022-09-26T17:43:34.064Z,85.27
2022-09-26T17:46:15.900Z,85.31
2022-09-26T17:48:54.739Z,85.39
2022-09-26T17:51:31.306Z,85.40
2022-09-26T17:54:10.291Z,85.47
2022-09-26T17:56:48.291Z,85.66
2022-09-26T17:59:28.697Z,85.83
2022-09-26T18:02:24.460Z,85.94
2022-09-26T18:05:06.029Z,86.13
2022-09-26T18:07:44.584Z,86.31
2022-09-26T18:10:28.500Z,86.44
2022-09-26T18:13:13.570Z,86.47
2022-09-26T18:15:52.402Z,86.55
2022-09-26T18:18:32.406Z,86.69
2022-09-26T18:21:19.682Z,86.71
2022-09-26T18:24:00.918Z,86.69
2022-09-26T18:26:42.305Z,86.73
2022-09-26T18:29:26.885Z,86.88
2022-09-26T18:32:06.802Z,86.97
2022-09-26T18:34:44.343Z,86.99
2022-09-26T18:37:21.213Z,87.06
2022-09-26T18:40:02.952Z,87.15
2022-09-26T18:42:44.008Z,87.26
2022-09-26T18:45:27.989Z,87.43
2022-09-26T18:48:07.729Z,87.49
2022-09-26T18:50:47.368Z,87.44
2022-09-26T18:53:35.004Z,87.40
2022-09-26T18:56:31.084Z,87.43
2022-09-26T18:59:09.546Z,87.50
2022-09-26T19:01:50.898Z,87.51
2022-09-26T19:04:30.438Z,87.64
2022-09-26T19:07:16.116Z,87.62
2022-09-26T19:09:57.133Z,87.59
2022-09-26T19:12:39.094Z,87.59
2022-09-26T19:15:20.372Z,87.59
2022-09-26T19:17:59.286Z,87.61
2022-09-26T19:20:35.968Z,87.61
2022-09-26T19:23:17.420Z,87.73
2022-09-26T19:25:54.881Z,87.77
2022-09-26T19:28:37.314Z,87.69
2022-09-26T19:31:15.013Z,87.60
2022-09-26T19:33:53.847Z,87.57
2022-09-26T19:36:30.850Z,87.48
2022-09-26T19:39:10.856Z,87.40
2022-09-26T19:41:47.513Z,87.36
2022-09-26T19:44:24.488Z,87.29
2022-09-26T19:47:03.098Z,87.24
2022-09-26T19:49:42.810Z,87.20
2022-09-26T19:52:24.679Z,87.25
2022-09-26T19:55:01.547Z,87.19
2022-09-26T19:57:38.666Z,87.16
2022-09-26T20:00:19.593Z,87.19
2022-09-26T20:02:57.085Z,87.18
2022-09-26T20:05:33.705Z,87.10
2022-09-26T20:08:17.091Z,87.21
2022-09-26T20:10:54.805Z,87.24
2022-09-26T20:13:51.343Z,87.28
2022-09-26T20:16:28.850Z,87.38
2022-09-26T20:19:09.163Z,87.41
2022-09-26T20:21:46.422Z,87.39
2022-09-26T20:24:23.582Z,87.41
2022-09-26T20:27:03.167Z,87.39
2022-09-26T20:29:57.344Z,87.40
2022-09-26T20:32:34.012Z,87.50
2022-09-26T20:35:16.339Z,87.50
2022-09-26T20:37:53.447Z,87.49
2022-09-26T20:40:32.167Z,87.42
2022-09-26T20:43:14.587Z,87.50
2022-09-26T20:45:51.174Z,87.49
2022-09-26T20:48:30.900Z,87.59
2022-09-26T20:51:16.900Z,87.76
2022-09-26T20:53:54.037Z,87.70
2022-09-26T20:56:30.796Z,87.79
2022-09-26T20:59:08.599Z,87.80
2022-09-26T21:01:45.252Z,87.89
2022-09-26T21:04:33.771Z,87.98
2022-09-26T21:07:13.924Z,88.00
2022-09-26T21:09:50.917Z,88.10
2022-09-26T21:12:27.930Z,88.09
2022-09-26T21:15:04.192Z,88.05
2022-09-26T21:17:40.751Z,88.06
2022-09-26T21:20:25.253Z,88.11
2022-09-26T21:23:17.403Z,88.19
2022-09-26T21:25:53.766Z,88.15
2022-09-26T21:28:31.793Z,88.21
2022-09-26T21:31:12.099Z,88.29
2022-09-26T21:33:49.676Z,88.25
2022-09-26T21:36:30.452Z,88.23
2022-09-26T21:39:10.772Z,88.37
2022-09-26T21:41:49.578Z,88.48
2022-09-26T21:44:34.084Z,88.57
2022-09-26T21:47:11.011Z,88.62
2022-09-26T21:49:49.021Z,88.62
2022-09-26T21:52:35.188Z,88.70
2022-09-26T21:55:22.685Z,88.71
2022-09-26T21:58:04.149Z,88.72
2022-09-26T22:00:40.762Z,88.71
2022-09-26T22:03:17.173Z,88.79
2022-09-26T22:05:53.570Z,88.79
2022-09-26T22:08:31.015Z,88.86
2022-09-26T22:11:09.394Z,88.91
2022-09-26T22:13:45.944Z,88.90
2022-09-26T22:16:23.277Z,88.90
2022-09-26T22:18:59.621Z,88.95
2022-09-26T22:21:36.015Z,89.01
2022-09-26T22:24:13.265Z,89.01
2022-09-26T22:26:50.743Z,89.04
2022-09-26T22:29:27.441Z,89.02
2022-09-26T22:32:04.989Z,89.04
2022-09-26T22:34:41.594Z,89.10
2022-09-26T22:37:18.261Z,89.19
2022-09-26T22:39:54.683Z,89.17
2022-09-26T22:42:31.316Z,89.15
2022-09-26T22:45:08.586Z,89.12
2022-09-26T22:47:45.107Z,89.16
2022-09-26T22:50:21.755Z,89.11
2022-09-26T22:52:58.973Z,89.01
2022-09-26T22:55:35.449Z,89.07
2022-09-26T22:58:12.658Z,88.98
2022-09-26T23:00:49.190Z,89.05
2022-09-26T23:03:25.610Z,89.06
2022-09-26T23:06:02.404Z,89.00
2022-09-26T23:08:40.116Z,89.09
2022-09-26T23:11:18.920Z,89.19
2022-09-26T23:13:56.641Z,89.22
2022-09-26T23:16:33.369Z,89.24
2022-09-26T23:19:10.247Z,89.28
2022-09-26T23:21:47.222Z,89.39
2022-09-26T23:24:24.936Z,89.42
2022-09-26T23:27:03.178Z,89.40
2022-09-26T23:29:39.614Z,89.50
2022-09-26T23:32:16.038Z,89.53
2022-09-26T23:34:52.450Z,89.46
2022-09-26T23:37:28.813Z,89.43
2022-09-26T23:40:06.828Z,89.49
2022-09-26T23:42:43.448Z,89.51
2022-09-26T23:45:20.079Z,89.60
2022-09-26T23:47:56.628Z,89.66
2022-09-26T23:50:33.095Z,89.76
2022-09-26T23:53:10.098Z,89.81
2022-09-26T23:55:46.612Z,89.87
2022-09-26T23:58:22.869Z,89.89
